Minisink Hills, PA (18341)

6:17 AM EDT on September 05, 2015 (GMT -0400)
South Stroudsburg | | Change Station
CLOSE
Current Station
Personal Weather Station
Location: Stroudsburg, PA
Elevation: 450 ft
Nearby Weather Stations

Elev 450 ft 40.98 °N, 75.19 °W | Updated 9 seconds ago

Partly Cloudy
Partly Cloudy
66.6 °F
Feels Like 66.6 °F
N
0.0
Wind Variable Wind from North
Gusts 0.0 mph

Today
High -- | Low -- °F
--% Chance of Precip.
Yesterday
High -- | Low -- °F
Precip. -- in
6:30 AM 7:26 PM
Waning Gibbous, 50% visible
Pressure 30.25 in
Visibility 7.0 miles
Clouds Overcast 500 ft
Dew Point 66 °F
Humidity 99%
Rainfall 0.00 in
Snow Depth Not available.
UV 0 out of 12
Pollen 9.00 out of 12
Air Quality Not available.
Flu Activity Not available.
METAR KMPO 050953Z AUTO 13007KT 7SM OVC005 17/16 A3028 RMK AO2 CIG 003V008 SLP244 T01720161
Pressure 30.25 in
Visibility 7.0 miles
Clouds Overcast 500 ft
Dew Point 66 °F
Humidity 99%
Rainfall 0.00 in
Snow Depth Not available.
UV 0 out of 12
Pollen 9.00 out of 12
Air Quality Not available.
Flu Activity Not available.
METAR KMPO 050953Z AUTO 13007KT 7SM OVC005 17/16 A3028 RMK AO2 CIG 003V008 SLP244 T01720161

10-Day Weather Forecast

×

Almanac

Astronomy

Sep. 05, 2015 Rise Set
Actual Time
Civil Twilight
Nautical Twilight
Astronomical Twilight
Moon
Length of Visible Light
Length of Day
Tomorrow will be .
, % of the Moon is Illuminated

Today's Extremes

State Highs State Lows

Community

WunderPhotos

Upload Photos

1,852,440 photos uploaded!

WunderBlogs® & News

Nearby

Air Quality

  Air Quality AQ Index Pollutant
Not available.

Snow Depth

Station Depth Elevation

Earthquake Activity

City Distance Mag. Time & Date
Minimum magnitude displayed is 2.5.

Coastal Water Temperatures

Place Temperature

Stations

Nearby Weather Stations

Station Location Temp. Windchill Dew Point Humidity Wind Precip. Elev Updated Type